createdAt,value
2022-08-27T00:00:20.072Z,4.82
2022-08-27T00:02:49.404Z,4.88
2022-08-27T00:05:19.919Z,5.25
2022-08-27T00:07:50.611Z,5.18
2022-08-27T00:10:26.995Z,4.95
2022-08-27T00:12:56.805Z,5.10
2022-08-27T00:15:25.746Z,5.75
2022-08-27T00:17:54.559Z,5.22
2022-08-27T00:20:27.280Z,4.95
2022-08-27T00:22:58.133Z,4.95
2022-08-27T00:25:28.457Z,5.78
2022-08-27T00:27:57.422Z,5.30
2022-08-27T00:30:26.383Z,5.45
2022-08-27T00:32:57.290Z,5.10
2022-08-27T00:35:25.789Z,5.25
2022-08-27T00:37:55.480Z,5.07
2022-08-27T00:40:25.462Z,5.22
2022-08-27T00:42:54.994Z,4.97
2022-08-27T00:45:25.861Z,4.97
2022-08-27T00:47:57.877Z,4.95
2022-08-27T00:53:03.990Z,4.88
2022-08-27T00:55:37.733Z,4.97
2022-08-27T00:58:11.379Z,5.53
2022-08-27T01:00:40.419Z,6.05
2022-08-27T01:03:09.921Z,5.90
2022-08-27T01:05:40.237Z,6.60
2022-08-27T01:08:13.011Z,5.63
2022-08-27T01:10:44.418Z,5.50
2022-08-27T01:13:15.690Z,5.97
2022-08-27T01:15:45.758Z,5.25
2022-08-27T01:18:16.326Z,5.88
2022-08-27T01:20:51.925Z,5.78
2022-08-27T01:23:28.868Z,5.28
2022-08-27T01:26:00.041Z,5.20
2022-08-27T01:28:35.792Z,4.90
2022-08-27T01:31:09.068Z,5.25
2022-08-27T01:33:39.815Z,5.60
2022-08-27T01:36:09.411Z,5.47
2022-08-27T01:38:37.945Z,5.32
2022-08-27T01:41:08.078Z,5.10
2022-08-27T01:43:36.754Z,5.53
2022-08-27T01:46:05.658Z,5.53
2022-08-27T01:48:35.002Z,5.22
2022-08-27T01:51:04.245Z,5.40
2022-08-27T01:53:33.779Z,5.78
2022-08-27T01:56:02.707Z,5.53
2022-08-27T01:58:33.971Z,5.88
2022-08-27T02:01:06.496Z,5.43
2022-08-27T02:03:37.479Z,5.78
2022-08-27T02:06:07.853Z,5.82
2022-08-27T02:08:36.989Z,6.03
2022-08-27T02:11:06.675Z,5.60
2022-08-27T02:13:39.399Z,5.78
2022-08-27T02:16:08.147Z,5.50
2022-08-27T02:18:38.642Z,5.70
2022-08-27T02:21:10.734Z,5.38
2022-08-27T02:23:39.905Z,5.82
2022-08-27T02:26:08.941Z,5.60
2022-08-27T02:28:39.228Z,4.88
2022-08-27T02:31:07.770Z,5.68
2022-08-27T02:33:36.392Z,5.68
2022-08-27T02:36:06.175Z,5.53
2022-08-27T02:38:34.977Z,5.82
2022-08-27T02:41:03.577Z,5.60
2022-08-27T02:43:32.781Z,5.88
2022-08-27T02:46:05.797Z,5.30
2022-08-27T02:48:37.439Z,6.13
2022-08-27T02:51:09.255Z,5.30
2022-08-27T02:53:38.122Z,6.00
2022-08-27T02:56:07.058Z,5.55
2022-08-27T02:58:35.950Z,5.80
2022-08-27T03:01:06.370Z,5.93
2022-08-27T03:03:40.373Z,5.78
2022-08-27T03:06:10.198Z,5.90
2022-08-27T03:08:53.027Z,5.70
2022-08-27T03:11:23.447Z,5.50
2022-08-27T03:13:53.395Z,5.88
2022-08-27T03:16:23.437Z,5.78
2022-08-27T03:18:51.840Z,5.32
2022-08-27T03:21:22.585Z,6.40
2022-08-27T03:23:52.350Z,5.82
2022-08-27T03:26:21.664Z,5.60
2022-08-27T03:28:50.611Z,5.82
2022-08-27T03:31:27.198Z,6.05
2022-08-27T03:33:59.605Z,6.10
2022-08-27T03:36:31.589Z,5.97
2022-08-27T03:39:00.804Z,6.20
2022-08-27T03:41:39.962Z,5.80
2022-08-27T03:44:21.454Z,5.75
2022-08-27T03:46:50.828Z,6.28
2022-08-27T03:49:25.079Z,6.13
2022-08-27T03:51:54.931Z,5.57
2022-08-27T03:54:29.151Z,5.68
2022-08-27T03:56:58.393Z,6.03
2022-08-27T03:59:27.218Z,7.15
2022-08-27T04:01:55.819Z,5.57
2022-08-27T04:04:26.401Z,6.22
2022-08-27T04:06:57.850Z,6.40
2022-08-27T04:11:56.109Z,5.57
2022-08-27T04:14:26.915Z,6.00
2022-08-27T04:19:30.519Z,6.07
2022-08-27T04:22:03.736Z,5.85
2022-08-27T04:24:34.141Z,5.85
2022-08-27T04:27:04.771Z,5.60
2022-08-27T04:29:34.361Z,5.93
2022-08-27T04:32:04.674Z,5.75
2022-08-27T04:34:35.287Z,5.65
2022-08-27T04:37:05.668Z,5.70
2022-08-27T04:39:35.716Z,5.53
2022-08-27T04:42:04.876Z,6.22
2022-08-27T04:44:34.772Z,6.43
2022-08-27T04:47:06.194Z,5.68
2022-08-27T04:49:37.508Z,5.75
2022-08-27T04:53:46.228Z,7.00
2022-08-27T04:56:17.202Z,6.45
2022-08-27T04:58:46.365Z,6.38
2022-08-27T05:01:18.307Z,6.10
2022-08-27T05:03:47.314Z,6.10
2022-08-27T05:06:16.281Z,5.95
2022-08-27T05:08:46.506Z,6.15
2022-08-27T05:11:17.316Z,5.20
2022-08-27T05:13:47.341Z,6.25
2022-08-27T05:16:18.444Z,5.65
2022-08-27T05:18:48.766Z,5.90
2022-08-27T05:21:19.845Z,5.82
2022-08-27T05:23:51.143Z,5.50
2022-08-27T05:26:20.426Z,5.20
2022-08-27T05:28:49.336Z,5.30
2022-08-27T05:31:19.730Z,5.85
2022-08-27T05:33:49.533Z,5.43
2022-08-27T05:36:21.869Z,5.20
2022-08-27T05:38:51.979Z,5.68
2022-08-27T05:41:25.293Z,5.32
2022-08-27T05:44:07.715Z,6.60
2022-08-27T05:46:49.190Z,7.63
2022-08-27T05:49:18.648Z,6.90
2022-08-27T05:51:47.229Z,7.25
2022-08-27T05:54:20.146Z,6.32
2022-08-27T05:56:52.237Z,7.43
2022-08-27T05:59:39.716Z,7.50
2022-08-27T06:02:09.631Z,7.18
2022-08-27T06:04:39.047Z,7.72
2022-08-27T06:07:09.772Z,7.60
2022-08-27T06:09:40.528Z,6.97
2022-08-27T06:12:09.866Z,7.85
2022-08-27T06:14:38.998Z,7.82
2022-08-27T06:17:08.919Z,7.57
2022-08-27T06:19:37.942Z,7.25
2022-08-27T06:22:10.106Z,7.05
2022-08-27T06:24:42.350Z,7.25
2022-08-27T06:27:13.695Z,6.80
2022-08-27T06:29:43.125Z,7.05
2022-08-27T06:32:13.321Z,7.53
2022-08-27T06:34:42.503Z,8.55
2022-08-27T06:37:11.080Z,7.45
2022-08-27T06:39:41.859Z,7.00
2022-08-27T06:42:12.788Z,7.15
2022-08-27T06:44:41.441Z,6.85
2022-08-27T06:47:10.783Z,7.18
2022-08-27T06:49:41.439Z,7.38
2022-08-27T06:52:12.437Z,7.40
2022-08-27T06:54:42.442Z,7.40
2022-08-27T06:57:11.259Z,7.28
2022-08-27T06:59:40.003Z,7.72
2022-08-27T07:02:09.208Z,6.90
2022-08-27T07:04:40.952Z,7.20
2022-08-27T07:07:13.920Z,7.20
2022-08-27T07:09:58.205Z,7.53
2022-08-27T07:12:30.766Z,6.68
2022-08-27T07:14:59.412Z,6.57
2022-08-27T07:17:28.145Z,7.13
2022-08-27T07:19:56.939Z,7.35
2022-08-27T07:22:25.668Z,7.28
2022-08-27T07:24:54.206Z,7.25
2022-08-27T07:27:24.369Z,6.53
2022-08-27T07:29:53.270Z,6.68
2022-08-27T07:32:21.986Z,6.60
2022-08-27T07:34:59.748Z,7.05
2022-08-27T07:37:35.284Z,6.65
2022-08-27T07:40:06.161Z,6.57
2022-08-27T07:42:54.355Z,6.85
2022-08-27T07:45:23.189Z,7.05
2022-08-27T07:47:52.066Z,6.70
2022-08-27T07:50:21.819Z,7.47
2022-08-27T07:52:50.639Z,6.85
2022-08-27T07:55:20.339Z,6.60
2022-08-27T07:57:51.463Z,6.13
2022-08-27T08:00:21.955Z,6.60
2022-08-27T08:02:51.182Z,6.75
2022-08-27T08:05:20.107Z,6.63
2022-08-27T08:07:48.731Z,6.53
2022-08-27T08:10:17.587Z,6.55
2022-08-27T08:12:48.271Z,6.50
2022-08-27T08:15:19.013Z,6.18
2022-08-27T08:17:48.477Z,7.35
2022-08-27T08:20:27.491Z,5.88
2022-08-27T08:23:09.859Z,5.53
2022-08-27T08:25:39.493Z,5.68
2022-08-27T08:28:11.971Z,5.65
2022-08-27T08:30:45.074Z,6.05
2022-08-27T08:33:14.397Z,6.37
2022-08-27T08:35:43.112Z,5.78
2022-08-27T08:38:13.417Z,5.90
2022-08-27T08:40:44.889Z,6.10
2022-08-27T08:43:26.399Z,5.43
2022-08-27T08:45:59.713Z,5.78
2022-08-27T08:48:32.315Z,5.57
2022-08-27T08:51:06.965Z,5.68
2022-08-27T08:53:44.216Z,6.00
2022-08-27T08:56:21.277Z,5.75
2022-08-27T08:58:54.270Z,5.57
2022-08-27T09:01:27.988Z,5.63
2022-08-27T09:03:59.461Z,5.72
2022-08-27T09:06:41.231Z,5.15
2022-08-27T09:09:21.912Z,5.65
2022-08-27T09:12:01.121Z,5.15
2022-08-27T09:14:37.703Z,5.60
2022-08-27T09:17:11.475Z,6.03
2022-08-27T09:19:41.588Z,6.30
2022-08-27T09:22:21.231Z,5.95
2022-08-27T09:24:56.938Z,5.53
2022-08-27T09:27:26.639Z,5.43
2022-08-27T09:29:59.431Z,5.50
2022-08-27T09:32:34.703Z,5.97
2022-08-27T09:35:06.234Z,5.57
2022-08-27T09:37:42.164Z,5.68
2022-08-27T09:40:23.256Z,5.57
2022-08-27T09:42:54.745Z,5.10
2022-08-27T09:45:26.131Z,5.95
2022-08-27T09:48:04.410Z,5.95
2022-08-27T09:50:43.529Z,5.32
2022-08-27T09:53:21.509Z,5.28
2022-08-27T09:55:55.925Z,5.13
2022-08-27T09:58:30.054Z,4.85
2022-08-27T10:01:04.289Z,4.82
2022-08-27T10:03:35.373Z,4.93
2022-08-27T10:06:09.381Z,5.00
2022-08-27T10:08:42.430Z,5.47
2022-08-27T10:11:16.523Z,5.50
2022-08-27T10:13:53.296Z,4.80
2022-08-27T10:16:55.377Z,5.28
2022-08-27T10:19:44.178Z,4.65
2022-08-27T10:22:19.697Z,4.85
2022-08-27T10:25:04.165Z,4.47
2022-08-27T10:27:40.024Z,4.85
2022-08-27T10:30:11.977Z,5.07
2022-08-27T10:32:57.932Z,5.20
2022-08-27T10:35:47.972Z,4.22
2022-08-27T10:38:26.345Z,5.80
2022-08-27T10:41:03.286Z,5.85
2022-08-27T10:43:52.621Z,6.13
2022-08-27T10:46:40.515Z,5.13
2022-08-27T10:49:28.412Z,5.32
2022-08-27T10:52:08.620Z,5.68
2022-08-27T10:54:44.759Z,5.00
2022-08-27T10:57:40.007Z,4.95
2022-08-27T11:00:16.698Z,5.28
2022-08-27T11:02:50.013Z,6.57
2022-08-27T11:05:25.776Z,5.15
2022-08-27T11:08:01.591Z,4.22
2022-08-27T11:10:32.308Z,4.50
2022-08-27T11:13:08.457Z,4.80
2022-08-27T11:15:40.290Z,4.75
2022-08-27T11:18:17.193Z,4.68
2022-08-27T11:20:53.985Z,4.10
2022-08-27T11:23:29.269Z,4.43
2022-08-27T11:26:02.660Z,4.13
2022-08-27T11:28:38.096Z,4.05
2022-08-27T11:31:14.936Z,4.45
2022-08-27T11:33:54.262Z,4.80
2022-08-27T11:36:56.381Z,3.63
2022-08-27T11:39:41.589Z,3.50
2022-08-27T11:42:14.751Z,5.57
2022-08-27T11:44:48.945Z,4.38
2022-08-27T11:47:22.416Z,4.82
2022-08-27T11:49:57.739Z,4.82
2022-08-27T11:52:29.805Z,5.22
2022-08-27T11:55:15.634Z,4.63
2022-08-27T11:57:45.329Z,4.55
2022-08-27T12:00:21.144Z,4.32
2022-08-27T12:03:04.561Z,4.95
2022-08-27T12:05:43.328Z,4.93
2022-08-27T12:08:27.116Z,4.55
2022-08-27T12:11:17.034Z,5.10
2022-08-27T12:13:57.380Z,5.32
2022-08-27T12:16:35.915Z,5.10
2022-08-27T12:19:18.806Z,4.82
2022-08-27T12:21:58.179Z,5.28
2022-08-27T12:24:42.547Z,4.95
2022-08-27T12:27:34.929Z,5.07
2022-08-27T12:30:22.209Z,4.50
2022-08-27T12:32:52.942Z,4.82
2022-08-27T12:35:29.953Z,5.15
2022-08-27T12:38:12.011Z,5.03
2022-08-27T12:40:47.459Z,5.50
2022-08-27T12:43:21.682Z,4.80
2022-08-27T12:45:53.972Z,5.63
2022-08-27T12:48:30.028Z,5.57
2022-08-27T12:51:04.369Z,5.47
2022-08-27T12:53:45.953Z,4.97
2022-08-27T12:56:40.798Z,6.18
2022-08-27T12:59:39.939Z,5.88
2022-08-27T13:02:27.256Z,6.32
2022-08-27T13:04:56.662Z,5.35
2022-08-27T13:07:33.023Z,6.03
2022-08-27T13:10:13.482Z,5.78
2022-08-27T13:12:44.540Z,5.38
2022-08-27T13:15:17.291Z,5.63
2022-08-27T13:17:48.341Z,5.30
2022-08-27T13:22:47.509Z,5.75
2022-08-27T13:25:29.070Z,5.63
2022-08-27T13:28:08.535Z,5.05
2022-08-27T13:30:42.558Z,5.72
2022-08-27T13:33:19.068Z,5.40
2022-08-27T13:35:48.440Z,5.57
2022-08-27T13:38:19.776Z,5.80
2022-08-27T13:40:59.849Z,5.57
2022-08-27T13:43:37.357Z,5.38
2022-08-27T13:46:13.438Z,5.18
2022-08-27T13:48:43.378Z,5.28
2022-08-27T13:51:14.937Z,5.03
2022-08-27T13:54:07.611Z,6.65
2022-08-27T13:56:39.187Z,5.22
2022-08-27T13:59:14.528Z,4.95
2022-08-27T14:01:58.326Z,6.03
2022-08-27T14:04:36.965Z,7.40
2022-08-27T14:07:13.991Z,6.30
2022-08-27T14:09:51.253Z,6.40
2022-08-27T14:12:32.981Z,5.30
2022-08-27T14:15:20.049Z,5.40
2022-08-27T14:17:52.101Z,5.18
2022-08-27T14:22:52.697Z,5.35
2022-08-27T14:25:30.690Z,5.68
2022-08-27T14:28:00.013Z,5.30
2022-08-27T14:30:30.126Z,5.72
2022-08-27T14:33:02.895Z,5.25
2022-08-27T14:35:37.338Z,6.80
2022-08-27T14:38:14.587Z,6.55
2022-08-27T14:40:44.837Z,5.95
2022-08-27T14:45:50.974Z,5.80
2022-08-27T14:48:28.537Z,6.82
2022-08-27T14:51:00.174Z,6.00
2022-08-27T14:53:29.639Z,5.05
2022-08-27T14:56:02.066Z,4.78
2022-08-27T14:58:31.829Z,5.00
2022-08-27T15:01:00.839Z,4.95
2022-08-27T15:03:32.920Z,5.85
2022-08-27T15:06:01.810Z,5.25
2022-08-27T15:08:32.294Z,5.20
2022-08-27T15:11:03.625Z,5.40
2022-08-27T15:13:34.058Z,5.13
2022-08-27T15:16:08.078Z,4.72
2022-08-27T15:18:38.844Z,4.60
2022-08-27T15:21:07.890Z,4.00
2022-08-27T15:23:37.571Z,4.43
2022-08-27T15:26:07.303Z,4.63
2022-08-27T15:28:37.557Z,4.88
2022-08-27T15:31:06.948Z,4.40
2022-08-27T15:33:37.328Z,4.78
2022-08-27T15:36:12.116Z,4.68
2022-08-27T15:38:41.570Z,4.88
2022-08-27T15:41:11.669Z,4.93
2022-08-27T15:43:41.276Z,4.90
2022-08-27T15:46:11.511Z,4.30
2022-08-27T15:48:40.206Z,5.53
2022-08-27T15:51:13.875Z,4.60
2022-08-27T15:53:44.395Z,5.18
2022-08-27T15:56:13.005Z,5.75
2022-08-27T15:58:47.816Z,6.35
2022-08-27T16:01:27.090Z,5.95
2022-08-27T16:03:57.641Z,5.80
2022-08-27T16:06:30.581Z,6.38
2022-08-27T16:09:01.795Z,5.95
2022-08-27T16:11:30.630Z,6.43
2022-08-27T16:13:59.631Z,6.63
2022-08-27T16:16:32.369Z,7.22
2022-08-27T16:19:02.716Z,5.68
2022-08-27T16:21:35.190Z,5.38
2022-08-27T16:24:05.710Z,5.47
2022-08-27T16:26:35.664Z,4.88
2022-08-27T16:29:05.777Z,4.82
2022-08-27T16:31:35.261Z,4.82
2022-08-27T16:34:15.174Z,6.00
2022-08-27T16:36:47.219Z,4.10
2022-08-27T16:41:46.215Z,5.70
2022-08-27T16:44:15.313Z,4.55
2022-08-27T16:46:43.943Z,4.40
2022-08-27T16:49:30.108Z,4.63
2022-08-27T16:52:00.538Z,5.35
2022-08-27T16:54:29.574Z,4.35
2022-08-27T16:56:58.236Z,4.60
2022-08-27T16:59:27.247Z,4.80
2022-08-27T17:01:57.565Z,3.97
2022-08-27T17:04:36.725Z,4.78
2022-08-27T17:09:40.340Z,4.55
2022-08-27T17:12:13.872Z,5.10
2022-08-27T17:14:45.747Z,6.20
2022-08-27T17:17:14.393Z,5.32
2022-08-27T17:19:43.037Z,5.90
2022-08-27T17:22:15.002Z,5.20
2022-08-27T17:24:44.525Z,5.53
2022-08-27T17:27:13.118Z,6.15
2022-08-27T17:29:41.592Z,6.85
2022-08-27T17:32:11.089Z,5.72
2022-08-27T17:34:40.404Z,5.65
2022-08-27T17:37:09.026Z,5.07
2022-08-27T17:39:38.973Z,5.72
2022-08-27T17:42:09.537Z,5.32
2022-08-27T17:44:39.130Z,5.55
2022-08-27T17:47:10.560Z,5.33
2022-08-27T17:49:41.249Z,5.40
2022-08-27T17:52:15.307Z,5.28
2022-08-27T17:54:47.551Z,5.70
2022-08-27T17:57:18.816Z,5.03
2022-08-27T17:59:48.251Z,5.72
2022-08-27T18:02:22.038Z,4.82
2022-08-27T18:04:52.261Z,5.20
2022-08-27T18:07:20.982Z,4.65
2022-08-27T18:09:51.646Z,5.10
2022-08-27T18:12:22.903Z,5.28
2022-08-27T18:14:56.097Z,4.32
2022-08-27T18:17:24.924Z,4.38
2022-08-27T18:19:53.515Z,4.60
2022-08-27T18:22:22.054Z,4.20
2022-08-27T18:24:52.381Z,4.28
2022-08-27T18:27:24.526Z,4.60
2022-08-27T18:29:53.491Z,4.50
2022-08-27T18:32:25.713Z,5.32
2022-08-27T18:34:56.978Z,4.18
2022-08-27T18:37:26.227Z,3.78
2022-08-27T18:39:56.545Z,3.85
2022-08-27T18:42:25.614Z,3.95
2022-08-27T18:44:54.379Z,4.20
2022-08-27T18:47:24.921Z,4.38
2022-08-27T18:49:53.420Z,5.53
2022-08-27T18:52:25.363Z,8.07
2022-08-27T18:54:54.475Z,11.35
2022-08-27T18:57:24.934Z,12.15
2022-08-27T18:59:54.164Z,12.70
2022-08-27T19:02:23.532Z,12.50
2022-08-27T19:04:52.452Z,9.50
2022-08-27T19:07:21.357Z,9.20
2022-08-27T19:09:50.317Z,14.93
2022-08-27T19:12:19.208Z,16.38
2022-08-27T19:14:49.681Z,14.60
2022-08-27T19:17:26.575Z,12.35
2022-08-27T19:19:55.993Z,15.52
2022-08-27T19:22:25.211Z,19.45
2022-08-27T19:24:55.458Z,27.63
2022-08-27T19:27:26.573Z,22.83
2022-08-27T19:29:57.241Z,17.60
2022-08-27T19:32:26.971Z,10.88
2022-08-27T19:35:03.489Z,9.07
2022-08-27T19:37:35.078Z,6.85
2022-08-27T19:42:33.271Z,5.60
2022-08-27T19:45:03.326Z,4.90
2022-08-27T19:47:33.004Z,5.35
2022-08-27T19:50:01.626Z,5.35
2022-08-27T19:52:31.138Z,6.00
2022-08-27T19:55:15.030Z,6.15
2022-08-27T19:57:44.400Z,5.90
2022-08-27T20:00:17.067Z,5.72
2022-08-27T20:02:46.299Z,7.38
2022-08-27T20:05:19.225Z,10.68
2022-08-27T20:07:48.976Z,11.90
2022-08-27T20:10:19.619Z,9.35
2022-08-27T20:12:50.944Z,8.13
2022-08-27T20:15:23.574Z,6.00
2022-08-27T20:17:54.557Z,4.43
2022-08-27T20:20:25.527Z,4.80
2022-08-27T20:22:55.399Z,4.95
2022-08-27T20:25:25.195Z,4.25
2022-08-27T20:27:54.458Z,4.95
2022-08-27T20:30:28.216Z,6.03
2022-08-27T20:32:57.416Z,5.45
2022-08-27T20:35:26.453Z,5.60
2022-08-27T20:37:55.743Z,5.40
2022-08-27T20:40:26.733Z,5.35
2022-08-27T20:42:55.936Z,3.85
2022-08-27T20:45:26.079Z,3.80
2022-08-27T20:47:59.461Z,3.80
2022-08-27T20:50:27.880Z,3.97
2022-08-27T20:52:59.305Z,3.70
2022-08-27T20:55:28.763Z,3.80
2022-08-27T20:58:15.431Z,3.92
2022-08-27T21:00:46.323Z,4.10
2022-08-27T21:03:16.465Z,3.90
2022-08-27T21:05:49.267Z,3.75
2022-08-27T21:08:20.390Z,4.18
2022-08-27T21:10:51.969Z,4.07
2022-08-27T21:13:21.697Z,4.47
2022-08-27T21:15:55.534Z,3.95
2022-08-27T21:18:29.789Z,3.78
2022-08-27T21:20:59.655Z,3.90
2022-08-27T21:23:30.920Z,3.50
2022-08-27T21:26:03.132Z,3.80
2022-08-27T21:28:31.670Z,3.83
2022-08-27T21:31:02.467Z,3.28
2022-08-27T21:33:34.103Z,3.83
2022-08-27T21:36:12.369Z,3.47
2022-08-27T21:38:41.454Z,3.30
2022-08-27T21:41:11.302Z,3.45
2022-08-27T21:43:39.646Z,3.30
2022-08-27T21:46:10.393Z,4.10
2022-08-27T21:48:39.602Z,3.20
2022-08-27T21:51:10.305Z,3.78
2022-08-27T21:53:39.464Z,3.45
2022-08-27T21:56:09.529Z,3.40
2022-08-27T21:58:38.466Z,3.20
2022-08-27T22:01:14.634Z,3.63
2022-08-27T22:03:49.369Z,3.22
2022-08-27T22:06:23.167Z,3.10
2022-08-27T22:08:53.582Z,4.18
2022-08-27T22:11:24.599Z,3.25
2022-08-27T22:13:53.839Z,3.63
2022-08-27T22:16:23.890Z,3.33
2022-08-27T22:18:55.008Z,4.05
2022-08-27T22:21:24.509Z,3.03
2022-08-27T22:23:54.477Z,3.25
2022-08-27T22:26:23.446Z,3.58
2022-08-27T22:28:52.164Z,3.20
2022-08-27T22:31:21.274Z,3.25
2022-08-27T22:33:51.617Z,3.10
2022-08-27T22:36:20.199Z,4.43
2022-08-27T22:38:49.081Z,4.28
2022-08-27T22:41:18.635Z,3.17
2022-08-27T22:43:48.199Z,4.10
2022-08-27T22:46:16.729Z,3.80
2022-08-27T22:48:45.241Z,3.75
2022-08-27T22:51:15.159Z,3.92
2022-08-27T22:53:44.331Z,3.35
2022-08-27T22:56:12.765Z,4.25
2022-08-27T22:58:45.835Z,3.72
2022-08-27T23:01:15.675Z,3.35
2022-08-27T23:03:44.880Z,4.03
2022-08-27T23:06:14.887Z,3.67
2022-08-27T23:08:43.258Z,3.38
2022-08-27T23:11:12.530Z,3.95
2022-08-27T23:13:41.600Z,3.50
2022-08-27T23:16:10.416Z,3.38
2022-08-27T23:18:40.818Z,4.47
2022-08-27T23:21:10.119Z,4.38
2022-08-27T23:23:40.284Z,4.45
2022-08-27T23:26:26.642Z,4.32
2022-08-27T23:28:56.436Z,4.50
2022-08-27T23:31:26.678Z,4.38
2022-08-27T23:33:56.283Z,4.05
2022-08-27T23:36:25.476Z,3.97
2022-08-27T23:38:55.454Z,3.95
2022-08-27T23:41:24.491Z,3.78
2022-08-27T23:43:54.176Z,4.18
2022-08-27T23:46:22.901Z,4.10
2022-08-27T23:48:51.550Z,4.20
2022-08-27T23:51:20.153Z,4.18
2022-08-27T23:53:50.314Z,3.75
2022-08-27T23:56:20.519Z,4.28
2022-08-27T23:58:56.683Z,4.30
